sensor_id;sensor_type;location;lat;lon;timestamp;temperature;humidity
46976;DHT22;32724;51.094;6.996;2022-09-12T00:01:55;12.40;99.90
46976;DHT22;32724;51.094;6.996;2022-09-12T00:04:21;12.50;99.90
46976;DHT22;32724;51.094;6.996;2022-09-12T00:06:46;12.50;99.90
46976;DHT22;32724;51.094;6.996;2022-09-12T00:09:12;12.50;99.90
46976;DHT22;32724;51.094;6.996;2022-09-12T00:11:39;12.50;99.90
46976;DHT22;32724;51.094;6.996;2022-09-12T00:14:05;12.50;99.90
46976;DHT22;32724;51.094;6.996;2022-09-12T00:16:32;12.40;99.90
46976;DHT22;32724;51.094;6.996;2022-09-12T00:18:58;12.50;99.90
46976;DHT22;32724;51.094;6.996;2022-09-12T00:21:23;12.40;99.90
46976;DHT22;32724;51.094;6.996;2022-09-12T00:23:49;12.30;99.90
46976;DHT22;32724;51.094;6.996;2022-09-12T00:26:15;12.30;99.90
46976;DHT22;32724;51.094;6.996;2022-09-12T00:28:41;12.20;99.90
46976;DHT22;32724;51.094;6.996;2022-09-12T00:31:08;12.20;99.90
46976;DHT22;32724;51.094;6.996;2022-09-12T00:33:34;12.20;99.90
46976;DHT22;32724;51.094;6.996;2022-09-12T00:36:03;12.10;99.90
46976;DHT22;32724;51.094;6.996;2022-09-12T00:38:28;12.10;99.90
46976;DHT22;32724;51.094;6.996;2022-09-12T00:40:54;12.10;99.90
46976;DHT22;32724;51.094;6.996;2022-09-12T00:45:55;12.10;99.90
46976;DHT22;32724;51.094;6.996;2022-09-12T00:48:30;12.00;99.90
46976;DHT22;32724;51.094;6.996;2022-09-12T00:50:56;12.00;99.90
46976;DHT22;32724;51.094;6.996;2022-09-12T00:53:22;12.00;99.90
46976;DHT22;32724;51.094;6.996;2022-09-12T00:55:48;12.00;99.90
46976;DHT22;32724;51.094;6.996;2022-09-12T00:58:19;12.00;99.90
46976;DHT22;32724;51.094;6.996;2022-09-12T01:00:46;12.00;99.90
46976;DHT22;32724;51.094;6.996;2022-09-12T01:03:12;11.90;99.90
46976;DHT22;32724;51.094;6.996;2022-09-12T01:05:43;11.90;99.90
46976;DHT22;32724;51.094;6.996;2022-09-12T01:08:11;11.90;99.90
46976;DHT22;32724;51.094;6.996;2022-09-12T01:10:37;11.90;99.90
46976;DHT22;32724;51.094;6.996;2022-09-12T01:13:08;11.90;99.90
46976;DHT22;32724;51.094;6.996;2022-09-12T01:15:36;11.80;99.90
46976;DHT22;32724;51.094;6.996;2022-09-12T01:26:25;11.80;99.90
46976;DHT22;32724;51.094;6.996;2022-09-12T01:34:03;11.70;99.90
46976;DHT22;32724;51.094;6.996;2022-09-12T01:36:35;11.70;99.90
46976;DHT22;32724;51.094;6.996;2022-09-12T01:39:03;11.70;99.90
46976;DHT22;32724;51.094;6.996;2022-09-12T01:46:41;11.70;99.90
46976;DHT22;32724;51.094;6.996;2022-09-12T01:51:38;11.70;99.90
46976;DHT22;32724;51.094;6.996;2022-09-12T01:54:11;11.60;99.90
46976;DHT22;32724;51.094;6.996;2022-09-12T01:56:38;11.60;99.90
46976;DHT22;32724;51.094;6.996;2022-09-12T01:59:06;11.60;99.90
46976;DHT22;32724;51.094;6.996;2022-09-12T02:01:34;11.60;99.90
46976;DHT22;32724;51.094;6.996;2022-09-12T02:04:09;11.60;99.90
46976;DHT22;32724;51.094;6.996;2022-09-12T02:07:09;11.50;99.90
46976;DHT22;32724;51.094;6.996;2022-09-12T02:09:33;11.50;99.90
46976;DHT22;32724;51.094;6.996;2022-09-12T02:12:00;11.50;99.90
46976;DHT22;32724;51.094;6.996;2022-09-12T02:14:27;11.40;99.90
46976;DHT22;32724;51.094;6.996;2022-09-12T02:16:55;11.40;99.90
46976;DHT22;32724;51.094;6.996;2022-09-12T02:19:23;11.40;99.90
46976;DHT22;32724;51.094;6.996;2022-09-12T02:21:52;11.40;99.90
46976;DHT22;32724;51.094;6.996;2022-09-12T02:24:18;11.40;99.90
46976;DHT22;32724;51.094;6.996;2022-09-12T02:26:46;11.40;99.90
46976;DHT22;32724;51.094;6.996;2022-09-12T02:29:13;11.40;99.90
46976;DHT22;32724;51.094;6.996;2022-09-12T02:31:40;11.40;99.90
46976;DHT22;32724;51.094;6.996;2022-09-12T02:34:25;11.40;99.90
46976;DHT22;32724;51.094;6.996;2022-09-12T02:37:06;11.40;99.90
46976;DHT22;32724;51.094;6.996;2022-09-12T02:39:37;11.40;99.90
46976;DHT22;32724;51.094;6.996;2022-09-12T02:42:03;11.40;99.90
46976;DHT22;32724;51.094;6.996;2022-09-12T02:44:29;11.40;99.90
46976;DHT22;32724;51.094;6.996;2022-09-12T02:46:56;11.40;99.90
46976;DHT22;32724;51.094;6.996;2022-09-12T02:49:24;11.40;99.90
46976;DHT22;32724;51.094;6.996;2022-09-12T02:51:49;11.40;99.90
46976;DHT22;32724;51.094;6.996;2022-09-12T02:54:15;11.50;99.90
46976;DHT22;32724;51.094;6.996;2022-09-12T02:56:42;11.60;99.90
46976;DHT22;32724;51.094;6.996;2022-09-12T02:59:08;11.70;99.90
46976;DHT22;32724;51.094;6.996;2022-09-12T03:27:30;11.70;99.90
46976;DHT22;32724;51.094;6.996;2022-09-12T03:29:57;11.70;99.90
46976;DHT22;32724;51.094;6.996;2022-09-12T03:32:43;11.70;99.90
46976;DHT22;32724;51.094;6.996;2022-09-12T03:35:09;11.60;99.90
46976;DHT22;32724;51.094;6.996;2022-09-12T03:37:35;11.60;99.90
46976;DHT22;32724;51.094;6.996;2022-09-12T03:40:02;11.60;99.90
46976;DHT22;32724;51.094;6.996;2022-09-12T03:42:28;11.60;99.90
46976;DHT22;32724;51.094;6.996;2022-09-12T03:44:53;11.70;99.90
46976;DHT22;32724;51.094;6.996;2022-09-12T03:47:19;11.70;99.90
46976;DHT22;32724;51.094;6.996;2022-09-12T03:49:44;11.70;99.90
46976;DHT22;32724;51.094;6.996;2022-09-12T03:52:10;11.80;99.90
46976;DHT22;32724;51.094;6.996;2022-09-12T03:54:36;11.80;99.90
46976;DHT22;32724;51.094;6.996;2022-09-12T03:57:01;11.90;99.90
46976;DHT22;32724;51.094;6.996;2022-09-12T03:59:27;11.90;99.90
46976;DHT22;32724;51.094;6.996;2022-09-12T04:01:52;11.90;99.90
46976;DHT22;32724;51.094;6.996;2022-09-12T04:04:18;12.00;99.90
46976;DHT22;32724;51.094;6.996;2022-09-12T04:06:43;11.90;99.90
46976;DHT22;32724;51.094;6.996;2022-09-12T04:09:08;11.80;99.90
46976;DHT22;32724;51.094;6.996;2022-09-12T04:11:34;11.70;99.90
46976;DHT22;32724;51.094;6.996;2022-09-12T04:14:00;11.70;99.90
46976;DHT22;32724;51.094;6.996;2022-09-12T04:16:25;11.60;99.90
46976;DHT22;32724;51.094;6.996;2022-09-12T04:18:51;11.60;99.90
46976;DHT22;32724;51.094;6.996;2022-09-12T04:21:17;11.60;99.90
46976;DHT22;32724;51.094;6.996;2022-09-12T04:23:44;11.50;99.90
46976;DHT22;32724;51.094;6.996;2022-09-12T04:26:09;11.40;99.90
46976;DHT22;32724;51.094;6.996;2022-09-12T04:28:36;11.40;99.90
46976;DHT22;32724;51.094;6.996;2022-09-12T04:31:03;11.40;99.90
46976;DHT22;32724;51.094;6.996;2022-09-12T04:33:29;11.50;99.90
46976;DHT22;32724;51.094;6.996;2022-09-12T04:35:54;11.50;99.90
46976;DHT22;32724;51.094;6.996;2022-09-12T04:38:20;11.50;99.90
46976;DHT22;32724;51.094;6.996;2022-09-12T04:40:45;11.50;99.90
46976;DHT22;32724;51.094;6.996;2022-09-12T04:43:11;11.50;99.90
46976;DHT22;32724;51.094;6.996;2022-09-12T04:45:37;11.50;99.90
46976;DHT22;32724;51.094;6.996;2022-09-12T04:48:02;11.40;99.90
46976;DHT22;32724;51.094;6.996;2022-09-12T04:50:28;11.40;99.90
46976;DHT22;32724;51.094;6.996;2022-09-12T04:52:53;11.40;99.90
46976;DHT22;32724;51.094;6.996;2022-09-12T04:55:20;11.40;99.90
46976;DHT22;32724;51.094;6.996;2022-09-12T04:57:45;11.40;99.90
46976;DHT22;32724;51.094;6.996;2022-09-12T05:00:11;11.30;99.90
46976;DHT22;32724;51.094;6.996;2022-09-12T05:02:37;11.30;99.90
46976;DHT22;32724;51.094;6.996;2022-09-12T05:05:03;11.30;99.90
46976;DHT22;32724;51.094;6.996;2022-09-12T05:07:28;11.30;99.90
46976;DHT22;32724;51.094;6.996;2022-09-12T05:09:54;11.30;99.90
46976;DHT22;32724;51.094;6.996;2022-09-12T05:12:19;11.30;99.90
46976;DHT22;32724;51.094;6.996;2022-09-12T05:14:45;11.40;99.90
46976;DHT22;32724;51.094;6.996;2022-09-12T05:17:10;11.40;99.90
46976;DHT22;32724;51.094;6.996;2022-09-12T05:19:36;11.50;99.90
46976;DHT22;32724;51.094;6.996;2022-09-12T05:22:01;11.60;99.90
46976;DHT22;32724;51.094;6.996;2022-09-12T05:24:29;11.60;99.90
46976;DHT22;32724;51.094;6.996;2022-09-12T05:26:54;11.70;99.90
46976;DHT22;32724;51.094;6.996;2022-09-12T05:29:20;11.80;99.90
46976;DHT22;32724;51.094;6.996;2022-09-12T05:31:45;11.90;99.90
46976;DHT22;32724;51.094;6.996;2022-09-12T05:34:16;12.10;99.90
46976;DHT22;32724;51.094;6.996;2022-09-12T05:36:42;12.20;99.90
46976;DHT22;32724;51.094;6.996;2022-09-12T05:39:07;12.30;99.90
46976;DHT22;32724;51.094;6.996;2022-09-12T05:41:33;12.40;99.90
46976;DHT22;32724;51.094;6.996;2022-09-12T05:44:01;12.60;99.90
46976;DHT22;32724;51.094;6.996;2022-09-12T05:46:27;12.70;99.90
46976;DHT22;32724;51.094;6.996;2022-09-12T05:48:53;12.70;99.90
46976;DHT22;32724;51.094;6.996;2022-09-12T05:51:22;12.80;99.90
46976;DHT22;32724;51.094;6.996;2022-09-12T05:53:49;12.90;99.90
46976;DHT22;32724;51.094;6.996;2022-09-12T05:56:16;12.90;99.90
46976;DHT22;32724;51.094;6.996;2022-09-12T05:58:44;13.10;99.90
46976;DHT22;32724;51.094;6.996;2022-09-12T06:01:19;13.20;99.90
46976;DHT22;32724;51.094;6.996;2022-09-12T06:03:46;13.30;99.90
46976;DHT22;32724;51.094;6.996;2022-09-12T06:06:12;13.50;99.90
46976;DHT22;32724;51.094;6.996;2022-09-12T06:08:38;13.60;99.90
46976;DHT22;32724;51.094;6.996;2022-09-12T06:11:05;13.70;99.90
46976;DHT22;32724;51.094;6.996;2022-09-12T06:13:31;13.80;99.90
46976;DHT22;32724;51.094;6.996;2022-09-12T06:16:04;13.90;99.90
46976;DHT22;32724;51.094;6.996;2022-09-12T06:18:31;14.00;99.90
46976;DHT22;32724;51.094;6.996;2022-09-12T06:20:56;14.10;99.90
46976;DHT22;32724;51.094;6.996;2022-09-12T06:23:22;14.20;99.90
46976;DHT22;32724;51.094;6.996;2022-09-12T06:25:48;14.30;99.90
46976;DHT22;32724;51.094;6.996;2022-09-12T06:28:14;14.50;99.90
46976;DHT22;32724;51.094;6.996;2022-09-12T06:30:40;14.60;99.90
46976;DHT22;32724;51.094;6.996;2022-09-12T06:33:05;14.60;99.90
46976;DHT22;32724;51.094;6.996;2022-09-12T06:35:34;14.30;99.90
46976;DHT22;32724;51.094;6.996;2022-09-12T06:37:59;14.20;99.90
46976;DHT22;32724;51.094;6.996;2022-09-12T06:40:26;14.00;99.90
46976;DHT22;32724;51.094;6.996;2022-09-12T06:42:51;14.00;99.90
46976;DHT22;32724;51.094;6.996;2022-09-12T06:45:17;14.00;99.90
46976;DHT22;32724;51.094;6.996;2022-09-12T06:47:44;14.10;99.90
46976;DHT22;32724;51.094;6.996;2022-09-12T06:50:09;14.10;99.90
46976;DHT22;32724;51.094;6.996;2022-09-12T06:52:35;14.30;99.90
46976;DHT22;32724;51.094;6.996;2022-09-12T06:55:01;14.70;99.90
46976;DHT22;32724;51.094;6.996;2022-09-12T06:57:26;15.00;99.90
46976;DHT22;32724;51.094;6.996;2022-09-12T06:59:54;15.40;99.90
46976;DHT22;32724;51.094;6.996;2022-09-12T07:02:20;15.80;99.90
46976;DHT22;32724;51.094;6.996;2022-09-12T07:04:45;16.10;99.90
46976;DHT22;32724;51.094;6.996;2022-09-12T07:07:11;16.30;99.90
46976;DHT22;32724;51.094;6.996;2022-09-12T07:09:36;16.50;99.90
46976;DHT22;32724;51.094;6.996;2022-09-12T07:12:02;16.80;99.90
46976;DHT22;32724;51.094;6.996;2022-09-12T07:14:28;16.90;99.90
46976;DHT22;32724;51.094;6.996;2022-09-12T07:16:54;17.00;99.90
46976;DHT22;32724;51.094;6.996;2022-09-12T07:19:20;17.00;99.90
46976;DHT22;32724;51.094;6.996;2022-09-12T07:21:45;17.10;99.90
46976;DHT22;32724;51.094;6.996;2022-09-12T07:24:11;17.20;99.90
46976;DHT22;32724;51.094;6.996;2022-09-12T07:26:37;17.30;99.90
46976;DHT22;32724;51.094;6.996;2022-09-12T07:29:04;17.50;99.90
46976;DHT22;32724;51.094;6.996;2022-09-12T07:31:29;17.60;99.90
46976;DHT22;32724;51.094;6.996;2022-09-12T07:33:55;17.80;99.90
46976;DHT22;32724;51.094;6.996;2022-09-12T07:36:21;17.80;99.90
46976;DHT22;32724;51.094;6.996;2022-09-12T07:38:47;18.10;99.90
46976;DHT22;32724;51.094;6.996;2022-09-12T07:41:14;18.10;99.90
46976;DHT22;32724;51.094;6.996;2022-09-12T07:43:41;18.30;99.90
46976;DHT22;32724;51.094;6.996;2022-09-12T07:46:06;18.20;99.90
46976;DHT22;32724;51.094;6.996;2022-09-12T07:48:32;18.10;99.90
46976;DHT22;32724;51.094;6.996;2022-09-12T07:51:01;18.00;99.90
46976;DHT22;32724;51.094;6.996;2022-09-12T07:53:35;18.10;99.90
46976;DHT22;32724;51.094;6.996;2022-09-12T07:56:01;18.10;99.90
46976;DHT22;32724;51.094;6.996;2022-09-12T07:58:28;18.00;99.90
46976;DHT22;32724;51.094;6.996;2022-09-12T08:01:00;18.20;99.90
46976;DHT22;32724;51.094;6.996;2022-09-12T08:03:25;18.30;99.90
46976;DHT22;32724;51.094;6.996;2022-09-12T08:05:51;18.30;99.90
46976;DHT22;32724;51.094;6.996;2022-09-12T08:08:17;18.60;99.90
46976;DHT22;32724;51.094;6.996;2022-09-12T08:10:42;18.60;99.90
46976;DHT22;32724;51.094;6.996;2022-09-12T08:13:08;18.80;99.90
46976;DHT22;32724;51.094;6.996;2022-09-12T08:15:34;18.80;99.90
46976;DHT22;32724;51.094;6.996;2022-09-12T08:17:59;18.80;99.90
46976;DHT22;32724;51.094;6.996;2022-09-12T08:20:25;18.90;99.90
46976;DHT22;32724;51.094;6.996;2022-09-12T08:22:51;18.90;99.90
46976;DHT22;32724;51.094;6.996;2022-09-12T08:25:16;18.90;99.90
46976;DHT22;32724;51.094;6.996;2022-09-12T08:27:42;19.00;99.90
46976;DHT22;32724;51.094;6.996;2022-09-12T08:30:08;18.80;99.90
46976;DHT22;32724;51.094;6.996;2022-09-12T08:32:34;18.80;99.90
46976;DHT22;32724;51.094;6.996;2022-09-12T08:35:00;18.70;99.90
46976;DHT22;32724;51.094;6.996;2022-09-12T08:37:28;18.90;99.90
46976;DHT22;32724;51.094;6.996;2022-09-12T08:39:54;18.90;99.90
46976;DHT22;32724;51.094;6.996;2022-09-12T08:42:30;19.20;99.90
46976;DHT22;32724;51.094;6.996;2022-09-12T08:47:36;19.70;99.90
46976;DHT22;32724;51.094;6.996;2022-09-12T08:52:39;20.10;99.90
46976;DHT22;32724;51.094;6.996;2022-09-12T08:55:12;20.40;99.90
46976;DHT22;32724;51.094;6.996;2022-09-12T08:57:42;20.30;99.90
46976;DHT22;32724;51.094;6.996;2022-09-12T09:00:11;20.30;99.90
46976;DHT22;32724;51.094;6.996;2022-09-12T09:13:32;20.60;99.90
46976;DHT22;32724;51.094;6.996;2022-09-12T09:16:29;20.90;99.90
46976;DHT22;32724;51.094;6.996;2022-09-12T09:19:00;21.30;99.90
46976;DHT22;32724;51.094;6.996;2022-09-12T09:21:32;21.40;99.90
46976;DHT22;32724;51.094;6.996;2022-09-12T09:24:01;21.70;99.90
46976;DHT22;32724;51.094;6.996;2022-09-12T09:26:29;21.90;99.90
46976;DHT22;32724;51.094;6.996;2022-09-12T09:31:31;22.30;99.90
46976;DHT22;32724;51.094;6.996;2022-09-12T09:33:57;22.40;99.90
46976;DHT22;32724;51.094;6.996;2022-09-12T09:38:52;22.30;99.90
46976;DHT22;32724;51.094;6.996;2022-09-12T09:41:30;22.30;99.90
46976;DHT22;32724;51.094;6.996;2022-09-12T09:43:59;22.20;99.90
46976;DHT22;32724;51.094;6.996;2022-09-12T09:46:25;22.00;99.90
46976;DHT22;32724;51.094;6.996;2022-09-12T09:48:51;22.10;99.90
46976;DHT22;32724;51.094;6.996;2022-09-12T09:51:20;22.20;99.90
46976;DHT22;32724;51.094;6.996;2022-09-12T09:56:28;22.30;99.90
46976;DHT22;32724;51.094;6.996;2022-09-12T09:58:54;22.30;99.90
46976;DHT22;32724;51.094;6.996;2022-09-12T10:01:20;22.20;99.90
46976;DHT22;32724;51.094;6.996;2022-09-12T10:03:50;22.10;99.90
46976;DHT22;32724;51.094;6.996;2022-09-12T10:08:45;22.10;99.90
46976;DHT22;32724;51.094;6.996;2022-09-12T10:13:40;22.30;99.90
46976;DHT22;32724;51.094;6.996;2022-09-12T10:16:18;22.40;99.90
46976;DHT22;32724;51.094;6.996;2022-09-12T10:18:44;22.60;99.90
46976;DHT22;32724;51.094;6.996;2022-09-12T10:21:14;22.70;99.90
46976;DHT22;32724;51.094;6.996;2022-09-12T10:23:40;22.70;99.90
46976;DHT22;32724;51.094;6.996;2022-09-12T10:26:10;22.80;99.90
46976;DHT22;32724;51.094;6.996;2022-09-12T10:28:37;22.80;99.90
46976;DHT22;32724;51.094;6.996;2022-09-12T10:31:04;23.00;99.90
46976;DHT22;32724;51.094;6.996;2022-09-12T10:33:30;23.10;99.90
46976;DHT22;32724;51.094;6.996;2022-09-12T10:36:01;23.30;99.90
46976;DHT22;32724;51.094;6.996;2022-09-12T10:38:27;23.30;99.90
46976;DHT22;32724;51.094;6.996;2022-09-12T10:45:49;23.30;99.90
46976;DHT22;32724;51.094;6.996;2022-09-12T10:50:46;23.40;99.90
46976;DHT22;32724;51.094;6.996;2022-09-12T10:53:13;23.40;99.90
46976;DHT22;32724;51.094;6.996;2022-09-12T10:55:40;23.50;99.90
46976;DHT22;32724;51.094;6.996;2022-09-12T10:58:27;23.80;99.90
46976;DHT22;32724;51.094;6.996;2022-09-12T11:00:57;23.90;99.90
46976;DHT22;32724;51.094;6.996;2022-09-12T11:03:36;23.80;99.90
46976;DHT22;32724;51.094;6.996;2022-09-12T11:06:04;23.80;99.90
46976;DHT22;32724;51.094;6.996;2022-09-12T11:16:33;23.40;99.90
46976;DHT22;32724;51.094;6.996;2022-09-12T11:19:05;23.40;99.90
46976;DHT22;32724;51.094;6.996;2022-09-12T11:24:21;23.70;99.90
46976;DHT22;32724;51.094;6.996;2022-09-12T11:39:28;24.00;99.90
46976;DHT22;32724;51.094;6.996;2022-09-12T11:41:59;24.10;99.90
46976;DHT22;32724;51.094;6.996;2022-09-12T11:44:28;24.30;99.90
46976;DHT22;32724;51.094;6.996;2022-09-12T11:46:57;24.30;99.90
46976;DHT22;32724;51.094;6.996;2022-09-12T11:49:35;24.40;99.90
46976;DHT22;32724;51.094;6.996;2022-09-12T11:57:20;23.90;99.90
46976;DHT22;32724;51.094;6.996;2022-09-12T12:02:18;23.80;99.90
46976;DHT22;32724;51.094;6.996;2022-09-12T12:05:06;23.80;99.90
46976;DHT22;32724;51.094;6.996;2022-09-12T12:07:37;23.90;99.90
46976;DHT22;32724;51.094;6.996;2022-09-12T12:10:04;23.80;99.90
46976;DHT22;32724;51.094;6.996;2022-09-12T12:12:31;23.90;99.90
46976;DHT22;32724;51.094;6.996;2022-09-12T12:14:56;23.80;99.90
46976;DHT22;32724;51.094;6.996;2022-09-12T12:17:23;23.90;99.90
46976;DHT22;32724;51.094;6.996;2022-09-12T12:19:59;24.00;99.90
46976;DHT22;32724;51.094;6.996;2022-09-12T12:22:25;24.10;99.90
46976;DHT22;32724;51.094;6.996;2022-09-12T12:27:24;24.50;99.90
46976;DHT22;32724;51.094;6.996;2022-09-12T12:29:50;24.60;99.90
46976;DHT22;32724;51.094;6.996;2022-09-12T12:34:41;24.60;99.90
46976;DHT22;32724;51.094;6.996;2022-09-12T12:39:53;24.30;99.90
46976;DHT22;32724;51.094;6.996;2022-09-12T12:44:57;24.50;99.90
46976;DHT22;32724;51.094;6.996;2022-09-12T12:50:05;24.20;99.90
46976;DHT22;32724;51.094;6.996;2022-09-12T12:52:45;24.10;99.90
46976;DHT22;32724;51.094;6.996;2022-09-12T12:57:59;24.10;99.90
46976;DHT22;32724;51.094;6.996;2022-09-12T13:00:27;24.20;99.90
46976;DHT22;32724;51.094;6.996;2022-09-12T13:05:26;24.40;99.90
46976;DHT22;32724;51.094;6.996;2022-09-12T13:07:57;24.30;99.90
46976;DHT22;32724;51.094;6.996;2022-09-12T13:10:24;24.30;99.90
46976;DHT22;32724;51.094;6.996;2022-09-12T13:12:53;24.30;99.90
46976;DHT22;32724;51.094;6.996;2022-09-12T13:18:00;24.30;99.90
46976;DHT22;32724;51.094;6.996;2022-09-12T13:20:30;24.30;99.90
46976;DHT22;32724;51.094;6.996;2022-09-12T13:22:57;24.30;99.90
46976;DHT22;32724;51.094;6.996;2022-09-12T13:25:33;24.40;99.90
46976;DHT22;32724;51.094;6.996;2022-09-12T13:28:00;24.60;99.90
46976;DHT22;32724;51.094;6.996;2022-09-12T13:30:29;24.60;99.90
46976;DHT22;32724;51.094;6.996;2022-09-12T13:32:56;24.60;99.90
46976;DHT22;32724;51.094;6.996;2022-09-12T13:35:28;24.50;99.90
46976;DHT22;32724;51.094;6.996;2022-09-12T13:38:43;24.50;99.90
46976;DHT22;32724;51.094;6.996;2022-09-12T13:43:15;24.50;99.90
46976;DHT22;32724;51.094;6.996;2022-09-12T13:45:43;24.40;99.90
46976;DHT22;32724;51.094;6.996;2022-09-12T13:48:17;24.30;99.90
46976;DHT22;32724;51.094;6.996;2022-09-12T13:50:53;24.40;99.90
46976;DHT22;32724;51.094;6.996;2022-09-12T13:53:22;24.50;99.90
46976;DHT22;32724;51.094;6.996;2022-09-12T13:55:49;24.50;99.90
46976;DHT22;32724;51.094;6.996;2022-09-12T13:58:20;24.40;99.90
46976;DHT22;32724;51.094;6.996;2022-09-12T14:00:46;24.50;99.90
46976;DHT22;32724;51.094;6.996;2022-09-12T14:03:28;24.40;99.90
46976;DHT22;32724;51.094;6.996;2022-09-12T14:06:12;24.60;99.90
46976;DHT22;32724;51.094;6.996;2022-09-12T14:08:41;24.90;99.90
46976;DHT22;32724;51.094;6.996;2022-09-12T14:11:08;25.10;99.90
46976;DHT22;32724;51.094;6.996;2022-09-12T14:13:35;25.10;99.90
46976;DHT22;32724;51.094;6.996;2022-09-12T14:16:03;25.20;99.90
46976;DHT22;32724;51.094;6.996;2022-09-12T14:18:33;25.30;99.90
46976;DHT22;32724;51.094;6.996;2022-09-12T14:21:06;25.20;99.90
46976;DHT22;32724;51.094;6.996;2022-09-12T14:23:35;25.10;99.90
46976;DHT22;32724;51.094;6.996;2022-09-12T14:26:07;25.20;99.90
46976;DHT22;32724;51.094;6.996;2022-09-12T14:28:34;25.10;99.90
46976;DHT22;32724;51.094;6.996;2022-09-12T14:31:03;25.10;99.90
46976;DHT22;32724;51.094;6.996;2022-09-12T14:34:13;25.10;99.90
46976;DHT22;32724;51.094;6.996;2022-09-12T14:39:03;25.10;99.90
46976;DHT22;32724;51.094;6.996;2022-09-12T14:41:31;25.00;99.90
46976;DHT22;32724;51.094;6.996;2022-09-12T14:43:58;25.00;99.90
46976;DHT22;32724;51.094;6.996;2022-09-12T14:46:34;24.90;99.90
46976;DHT22;32724;51.094;6.996;2022-09-12T14:56:56;24.70;99.90
46976;DHT22;32724;51.094;6.996;2022-09-12T14:59:35;24.80;99.90
46976;DHT22;32724;51.094;6.996;2022-09-12T15:02:20;24.80;99.90
46976;DHT22;32724;51.094;6.996;2022-09-12T15:09:40;24.70;99.90
46976;DHT22;32724;51.094;6.996;2022-09-12T15:12:07;24.80;99.90
46976;DHT22;32724;51.094;6.996;2022-09-12T15:14:32;24.80;99.90
46976;DHT22;32724;51.094;6.996;2022-09-12T15:16:58;24.80;99.90
46976;DHT22;32724;51.094;6.996;2022-09-12T15:19:23;24.90;99.90
46976;DHT22;32724;51.094;6.996;2022-09-12T15:21:49;25.00;99.90
46976;DHT22;32724;51.094;6.996;2022-09-12T15:24:14;24.90;99.90
46976;DHT22;32724;51.094;6.996;2022-09-12T15:26:40;24.90;99.90
46976;DHT22;32724;51.094;6.996;2022-09-12T15:29:05;24.80;99.90
46976;DHT22;32724;51.094;6.996;2022-09-12T15:31:31;24.70;99.90
46976;DHT22;32724;51.094;6.996;2022-09-12T15:33:57;24.70;99.90
46976;DHT22;32724;51.094;6.996;2022-09-12T15:36:23;24.50;99.90
46976;DHT22;32724;51.094;6.996;2022-09-12T15:38:49;24.50;99.90
46976;DHT22;32724;51.094;6.996;2022-09-12T15:41:16;24.40;99.90
46976;DHT22;32724;51.094;6.996;2022-09-12T15:43:42;24.40;99.90
46976;DHT22;32724;51.094;6.996;2022-09-12T15:46:11;24.40;99.90
46976;DHT22;32724;51.094;6.996;2022-09-12T15:48:37;24.30;99.90
46976;DHT22;32724;51.094;6.996;2022-09-12T15:51:03;24.30;99.90
46976;DHT22;32724;51.094;6.996;2022-09-12T15:53:29;24.30;99.90
46976;DHT22;32724;51.094;6.996;2022-09-12T15:55:55;24.30;99.90
46976;DHT22;32724;51.094;6.996;2022-09-12T15:58:20;24.30;99.90
46976;DHT22;32724;51.094;6.996;2022-09-12T16:00:46;24.30;99.90
46976;DHT22;32724;51.094;6.996;2022-09-12T16:03:25;24.30;99.90
46976;DHT22;32724;51.094;6.996;2022-09-12T16:05:55;24.30;99.90
46976;DHT22;32724;51.094;6.996;2022-09-12T16:08:20;24.30;99.90
46976;DHT22;32724;51.094;6.996;2022-09-12T16:10:46;24.20;99.90
46976;DHT22;32724;51.094;6.996;2022-09-12T16:13:13;24.10;99.90
46976;DHT22;32724;51.094;6.996;2022-09-12T16:15:39;24.10;99.90
46976;DHT22;32724;51.094;6.996;2022-09-12T16:18:04;24.10;99.90
46976;DHT22;32724;51.094;6.996;2022-09-12T16:20:30;24.00;99.90
46976;DHT22;32724;51.094;6.996;2022-09-12T16:22:55;24.00;99.90
46976;DHT22;32724;51.094;6.996;2022-09-12T16:25:21;23.90;99.90
46976;DHT22;32724;51.094;6.996;2022-09-12T16:27:46;23.80;99.90
46976;DHT22;32724;51.094;6.996;2022-09-12T16:30:12;23.70;99.90
46976;DHT22;32724;51.094;6.996;2022-09-12T16:32:38;23.80;99.90
46976;DHT22;32724;51.094;6.996;2022-09-12T16:35:03;23.80;99.90
46976;DHT22;32724;51.094;6.996;2022-09-12T16:37:30;23.80;99.90
46976;DHT22;32724;51.094;6.996;2022-09-12T16:39:55;23.80;99.90
46976;DHT22;32724;51.094;6.996;2022-09-12T16:42:21;23.70;99.90
46976;DHT22;32724;51.094;6.996;2022-09-12T16:44:46;23.80;99.90
46976;DHT22;32724;51.094;6.996;2022-09-12T16:47:12;23.80;99.90
46976;DHT22;32724;51.094;6.996;2022-09-12T16:49:38;23.70;99.90
46976;DHT22;32724;51.094;6.996;2022-09-12T16:52:03;23.70;99.90
46976;DHT22;32724;51.094;6.996;2022-09-12T16:54:29;23.70;99.90
46976;DHT22;32724;51.094;6.996;2022-09-12T16:56:54;23.70;99.90
46976;DHT22;32724;51.094;6.996;2022-09-12T16:59:20;23.60;99.90
46976;DHT22;32724;51.094;6.996;2022-09-12T17:01:45;23.50;99.90
46976;DHT22;32724;51.094;6.996;2022-09-12T17:04:11;23.40;99.90
46976;DHT22;32724;51.094;6.996;2022-09-12T17:06:36;23.40;99.90
46976;DHT22;32724;51.094;6.996;2022-09-12T17:09:02;23.40;99.90
46976;DHT22;32724;51.094;6.996;2022-09-12T17:11:33;23.40;99.90
46976;DHT22;32724;51.094;6.996;2022-09-12T17:13:59;23.40;99.90
46976;DHT22;32724;51.094;6.996;2022-09-12T17:16:25;23.40;99.90
46976;DHT22;32724;51.094;6.996;2022-09-12T17:18:51;23.30;99.90
46976;DHT22;32724;51.094;6.996;2022-09-12T17:21:17;23.30;99.90
46976;DHT22;32724;51.094;6.996;2022-09-12T17:23:42;23.20;99.90
46976;DHT22;32724;51.094;6.996;2022-09-12T17:26:08;23.10;99.90
46976;DHT22;32724;51.094;6.996;2022-09-12T17:28:35;23.00;99.90
46976;DHT22;32724;51.094;6.996;2022-09-12T17:31:01;22.90;99.90
46976;DHT22;32724;51.094;6.996;2022-09-12T17:33:27;22.80;99.90
46976;DHT22;32724;51.094;6.996;2022-09-12T17:35:53;22.60;99.90
46976;DHT22;32724;51.094;6.996;2022-09-12T17:38:19;22.50;99.90
46976;DHT22;32724;51.094;6.996;2022-09-12T17:40:45;22.40;99.90
46976;DHT22;32724;51.094;6.996;2022-09-12T17:43:11;22.30;99.90
46976;DHT22;32724;51.094;6.996;2022-09-12T17:45:36;22.20;99.90
46976;DHT22;32724;51.094;6.996;2022-09-12T17:48:02;22.10;99.90
46976;DHT22;32724;51.094;6.996;2022-09-12T17:50:30;22.10;99.90
46976;DHT22;32724;51.094;6.996;2022-09-12T17:52:56;21.90;99.90
46976;DHT22;32724;51.094;6.996;2022-09-12T17:55:21;21.80;99.90
46976;DHT22;32724;51.094;6.996;2022-09-12T17:57:47;21.70;99.90
46976;DHT22;32724;51.094;6.996;2022-09-12T18:00:13;21.70;99.90
46976;DHT22;32724;51.094;6.996;2022-09-12T18:02:38;21.60;99.90
46976;DHT22;32724;51.094;6.996;2022-09-12T18:05:04;21.50;99.90
46976;DHT22;32724;51.094;6.996;2022-09-12T18:07:30;21.40;99.90
46976;DHT22;32724;51.094;6.996;2022-09-12T18:09:56;21.30;99.90